East Otto, New York
Current Conditions -  °F | °C
As of 9:15 AM on Friday 19 Dec 2014 (Local Time) from KOLE Reporting Station
Haze Haze  
Wind Chill: 11°   Ceiling: 500
Heat Index: 21°   Visibility: 5mi
Dew Point: 21°   Wind: 9mph
Humidity: 100%   Direction: 300°WNW
Pressure: 30.07"   Gusts: NA
Location:  42.39°N, 78.75°W
Report Text: KOLE 191415Z AUTO 30008KT 5SM BR OVC005 M06/M06 A3007 RMK AO2
Loading
Personal Weather Stations






























Interactive Weather Map New forecast layout! Learn more

10-Day Weather Forecast

Advertisements
Track Severe Weather on mobile